sensor_id;sensor_type;location;lat;lon;timestamp;temperature;humidity
5274;DHT22;56254;50.956;7.010;2022-08-05T00:01:20;25.20;80.20
5274;DHT22;56254;50.956;7.010;2022-08-05T00:03:49;25.30;80.40
5274;DHT22;56254;50.956;7.010;2022-08-05T00:06:17;25.20;81.10
5274;DHT22;56254;50.956;7.010;2022-08-05T00:08:43;25.20;81.60
5274;DHT22;56254;50.956;7.010;2022-08-05T00:11:13;25.10;82.20
5274;DHT22;56254;50.956;7.010;2022-08-05T00:13:42;25.10;82.80
5274;DHT22;56254;50.956;7.010;2022-08-05T00:16:10;25.00;82.90
5274;DHT22;56254;50.956;7.010;2022-08-05T00:18:38;25.10;83.60
5274;DHT22;56254;50.956;7.010;2022-08-05T00:21:05;25.00;84.20
5274;DHT22;56254;50.956;7.010;2022-08-05T00:23:31;25.00;84.50
5274;DHT22;56254;50.956;7.010;2022-08-05T00:25:58;25.00;84.80
5274;DHT22;56254;50.956;7.010;2022-08-05T00:28:24;25.00;85.20
5274;DHT22;56254;50.956;7.010;2022-08-05T00:30:50;25.00;85.00
5274;DHT22;56254;50.956;7.010;2022-08-05T00:33:16;25.00;85.60
5274;DHT22;56254;50.956;7.010;2022-08-05T00:35:42;24.90;85.50
5274;DHT22;56254;50.956;7.010;2022-08-05T00:38:14;24.90;85.90
5274;DHT22;56254;50.956;7.010;2022-08-05T00:40:57;24.90;86.50
5274;DHT22;56254;50.956;7.010;2022-08-05T00:43:25;25.00;87.00
5274;DHT22;56254;50.956;7.010;2022-08-05T00:45:51;24.90;87.00
5274;DHT22;56254;50.956;7.010;2022-08-05T00:48:19;24.80;87.10
5274;DHT22;56254;50.956;7.010;2022-08-05T00:50:47;24.90;87.00
5274;DHT22;56254;50.956;7.010;2022-08-05T00:53:16;24.90;87.40
5274;DHT22;56254;50.956;7.010;2022-08-05T00:55:44;24.90;87.10
5274;DHT22;56254;50.956;7.010;2022-08-05T00:58:12;24.90;87.30
5274;DHT22;56254;50.956;7.010;2022-08-05T01:00:39;24.80;87.50
5274;DHT22;56254;50.956;7.010;2022-08-05T01:05:31;24.90;87.60
5274;DHT22;56254;50.956;7.010;2022-08-05T01:07:58;24.80;87.60
5274;DHT22;56254;50.956;7.010;2022-08-05T01:10:29;24.90;87.60
5274;DHT22;56254;50.956;7.010;2022-08-05T01:13:05;24.80;87.80
5274;DHT22;56254;50.956;7.010;2022-08-05T01:15:40;24.90;87.70
5274;DHT22;56254;50.956;7.010;2022-08-05T01:18:12;24.90;87.30
5274;DHT22;56254;50.956;7.010;2022-08-05T01:23:15;24.70;88.10
5274;DHT22;56254;50.956;7.010;2022-08-05T01:31:40;24.70;87.80
5274;DHT22;56254;50.956;7.010;2022-08-05T01:34:16;24.70;87.80
5274;DHT22;56254;50.956;7.010;2022-08-05T01:37:51;24.70;87.60
5274;DHT22;56254;50.956;7.010;2022-08-05T01:39:52;24.80;87.80
5274;DHT22;56254;50.956;7.010;2022-08-05T01:42:19;24.80;87.00
5274;DHT22;56254;50.956;7.010;2022-08-05T01:44:48;24.70;87.00
5274;DHT22;56254;50.956;7.010;2022-08-05T01:47:16;24.60;86.80
5274;DHT22;56254;50.956;7.010;2022-08-05T01:49:43;24.60;87.10
5274;DHT22;56254;50.956;7.010;2022-08-05T01:52:11;24.40;88.00
5274;DHT22;56254;50.956;7.010;2022-08-05T01:54:47;24.30;88.40
5274;DHT22;56254;50.956;7.010;2022-08-05T01:57:17;24.20;88.20
5274;DHT22;56254;50.956;7.010;2022-08-05T01:59:45;23.90;89.80
5274;DHT22;56254;50.956;7.010;2022-08-05T02:02:13;23.90;90.00
5274;DHT22;56254;50.956;7.010;2022-08-05T02:04:42;23.70;90.10
5274;DHT22;56254;50.956;7.010;2022-08-05T02:07:12;23.80;90.10
5274;DHT22;56254;50.956;7.010;2022-08-05T02:09:39;23.50;91.90
5274;DHT22;56254;50.956;7.010;2022-08-05T02:12:09;23.50;92.40
5274;DHT22;56254;50.956;7.010;2022-08-05T02:14:46;23.40;93.30
5274;DHT22;56254;50.956;7.010;2022-08-05T02:17:23;23.50;93.00
5274;DHT22;56254;50.956;7.010;2022-08-05T02:19:55;23.40;93.70
5274;DHT22;56254;50.956;7.010;2022-08-05T02:22:32;23.30;93.50
5274;DHT22;56254;50.956;7.010;2022-08-05T02:25:07;23.10;94.60
5274;DHT22;56254;50.956;7.010;2022-08-05T02:27:39;23.10;94.30
5274;DHT22;56254;50.956;7.010;2022-08-05T02:30:08;23.20;94.20
5274;DHT22;56254;50.956;7.010;2022-08-05T02:32:35;23.20;95.00
5274;DHT22;56254;50.956;7.010;2022-08-05T02:35:05;23.20;95.70
5274;DHT22;56254;50.956;7.010;2022-08-05T02:37:35;23.20;99.30
5274;DHT22;56254;50.956;7.010;2022-08-05T02:40:03;23.00;99.90
5274;DHT22;56254;50.956;7.010;2022-08-05T02:42:31;22.90;99.90
5274;DHT22;56254;50.956;7.010;2022-08-05T02:44:59;22.70;99.90
5274;DHT22;56254;50.956;7.010;2022-08-05T02:47:26;22.80;99.90
5274;DHT22;56254;50.956;7.010;2022-08-05T02:49:55;22.40;99.90
5274;DHT22;56254;50.956;7.010;2022-08-05T02:52:21;22.20;99.90
5274;DHT22;56254;50.956;7.010;2022-08-05T02:54:49;22.10;99.90
5274;DHT22;56254;50.956;7.010;2022-08-05T02:57:18;22.10;99.90
5274;DHT22;56254;50.956;7.010;2022-08-05T02:59:46;22.00;99.90
5274;DHT22;56254;50.956;7.010;2022-08-05T03:02:18;21.80;99.90
5274;DHT22;56254;50.956;7.010;2022-08-05T03:04:47;21.90;99.90
5274;DHT22;56254;50.956;7.010;2022-08-05T03:07:14;22.00;99.90
5274;DHT22;56254;50.956;7.010;2022-08-05T03:09:41;21.90;99.90
5274;DHT22;56254;50.956;7.010;2022-08-05T03:12:35;21.80;99.90
5274;DHT22;56254;50.956;7.010;2022-08-05T03:15:02;21.80;99.90
5274;DHT22;56254;50.956;7.010;2022-08-05T03:17:29;22.00;99.90
5274;DHT22;56254;50.956;7.010;2022-08-05T03:19:54;22.10;99.90
5274;DHT22;56254;50.956;7.010;2022-08-05T03:22:20;22.20;99.90
5274;DHT22;56254;50.956;7.010;2022-08-05T03:24:47;22.30;99.90
5274;DHT22;56254;50.956;7.010;2022-08-05T03:27:14;22.40;99.90
5274;DHT22;56254;50.956;7.010;2022-08-05T03:29:41;22.40;99.90
5274;DHT22;56254;50.956;7.010;2022-08-05T03:32:10;22.40;99.90
5274;DHT22;56254;50.956;7.010;2022-08-05T03:34:37;22.40;99.90
5274;DHT22;56254;50.956;7.010;2022-08-05T03:37:04;22.50;99.90
5274;DHT22;56254;50.956;7.010;2022-08-05T03:39:31;22.40;99.90
5274;DHT22;56254;50.956;7.010;2022-08-05T03:41:57;22.60;99.90
5274;DHT22;56254;50.956;7.010;2022-08-05T03:44:25;22.50;99.90
5274;DHT22;56254;50.956;7.010;2022-08-05T03:46:51;22.40;99.90
5274;DHT22;56254;50.956;7.010;2022-08-05T03:49:17;22.40;99.90
5274;DHT22;56254;50.956;7.010;2022-08-05T03:52:04;22.40;99.90
5274;DHT22;56254;50.956;7.010;2022-08-05T03:54:49;22.40;99.90
5274;DHT22;56254;50.956;7.010;2022-08-05T03:57:18;22.50;99.90
5274;DHT22;56254;50.956;7.010;2022-08-05T03:59:52;22.40;99.90
5274;DHT22;56254;50.956;7.010;2022-08-05T04:02:27;22.40;99.90
5274;DHT22;56254;50.956;7.010;2022-08-05T04:04:56;22.50;99.90
5274;DHT22;56254;50.956;7.010;2022-08-05T04:07:24;22.50;99.90
5274;DHT22;56254;50.956;7.010;2022-08-05T04:09:51;22.40;99.90
5274;DHT22;56254;50.956;7.010;2022-08-05T04:12:17;22.40;99.90
5274;DHT22;56254;50.956;7.010;2022-08-05T04:14:43;22.40;99.90
5274;DHT22;56254;50.956;7.010;2022-08-05T04:17:09;22.40;99.90
5274;DHT22;56254;50.956;7.010;2022-08-05T04:19:47;22.50;99.90
5274;DHT22;56254;50.956;7.010;2022-08-05T04:22:16;22.30;99.90
5274;DHT22;56254;50.956;7.010;2022-08-05T04:24:44;22.40;99.90
5274;DHT22;56254;50.956;7.010;2022-08-05T04:27:12;22.40;99.90
5274;DHT22;56254;50.956;7.010;2022-08-05T04:29:39;22.30;99.90
5274;DHT22;56254;50.956;7.010;2022-08-05T04:32:06;22.40;99.90
5274;DHT22;56254;50.956;7.010;2022-08-05T04:58:27;22.10;99.90
5274;DHT22;56254;50.956;7.010;2022-08-05T05:00:52;22.20;99.90
5274;DHT22;56254;50.956;7.010;2022-08-05T05:03:18;22.40;99.90
5274;DHT22;56254;50.956;7.010;2022-08-05T05:05:44;22.30;99.90
5274;DHT22;56254;50.956;7.010;2022-08-05T05:08:10;22.30;99.90
5274;DHT22;56254;50.956;7.010;2022-08-05T05:10:40;22.40;99.90
5274;DHT22;56254;50.956;7.010;2022-08-05T05:13:08;22.30;99.90
5274;DHT22;56254;50.956;7.010;2022-08-05T05:15:34;22.40;99.90
5274;DHT22;56254;50.956;7.010;2022-08-05T05:17:59;22.30;99.90
5274;DHT22;56254;50.956;7.010;2022-08-05T05:20:25;22.30;99.90
5274;DHT22;56254;50.956;7.010;2022-08-05T05:22:51;22.40;99.90
5274;DHT22;56254;50.956;7.010;2022-08-05T05:25:17;22.30;99.90
5274;DHT22;56254;50.956;7.010;2022-08-05T05:27:42;22.50;99.90
5274;DHT22;56254;50.956;7.010;2022-08-05T05:30:15;22.60;99.90
5274;DHT22;56254;50.956;7.010;2022-08-05T05:32:41;22.50;99.90
5274;DHT22;56254;50.956;7.010;2022-08-05T05:35:07;22.60;99.90
5274;DHT22;56254;50.956;7.010;2022-08-05T05:37:33;22.60;99.90
5274;DHT22;56254;50.956;7.010;2022-08-05T05:39:59;22.60;99.90
5274;DHT22;56254;50.956;7.010;2022-08-05T05:42:24;22.50;99.90
5274;DHT22;56254;50.956;7.010;2022-08-05T05:44:50;22.60;99.90
5274;DHT22;56254;50.956;7.010;2022-08-05T05:47:16;22.70;99.90
5274;DHT22;56254;50.956;7.010;2022-08-05T05:49:42;22.70;99.90
5274;DHT22;56254;50.956;7.010;2022-08-05T05:52:08;22.80;99.90
5274;DHT22;56254;50.956;7.010;2022-08-05T05:54:34;22.80;99.90
5274;DHT22;56254;50.956;7.010;2022-08-05T05:56:59;22.80;99.90
5274;DHT22;56254;50.956;7.010;2022-08-05T05:59:25;23.00;99.90
5274;DHT22;56254;50.956;7.010;2022-08-05T06:01:51;22.90;99.90
5274;DHT22;56254;50.956;7.010;2022-08-05T06:04:17;22.90;99.90
5274;DHT22;56254;50.956;7.010;2022-08-05T06:06:43;23.00;99.90
5274;DHT22;56254;50.956;7.010;2022-08-05T06:09:10;23.00;99.90
5274;DHT22;56254;50.956;7.010;2022-08-05T06:11:36;23.00;99.90
5274;DHT22;56254;50.956;7.010;2022-08-05T06:14:02;23.00;99.90
5274;DHT22;56254;50.956;7.010;2022-08-05T06:16:28;22.90;99.90
5274;DHT22;56254;50.956;7.010;2022-08-05T06:18:53;23.10;99.90
5274;DHT22;56254;50.956;7.010;2022-08-05T06:21:19;23.10;99.90
5274;DHT22;56254;50.956;7.010;2022-08-05T06:23:45;23.10;99.90
5274;DHT22;56254;50.956;7.010;2022-08-05T06:26:11;23.10;99.90
5274;DHT22;56254;50.956;7.010;2022-08-05T06:28:37;23.10;99.90
5274;DHT22;56254;50.956;7.010;2022-08-05T06:31:04;23.00;99.90
5274;DHT22;56254;50.956;7.010;2022-08-05T06:33:30;23.00;99.90
5274;DHT22;56254;50.956;7.010;2022-08-05T06:35:55;23.10;99.90
5274;DHT22;56254;50.956;7.010;2022-08-05T06:38:21;23.00;99.90
5274;DHT22;56254;50.956;7.010;2022-08-05T06:40:47;23.00;99.90
5274;DHT22;56254;50.956;7.010;2022-08-05T06:43:13;22.90;99.90
5274;DHT22;56254;50.956;7.010;2022-08-05T06:45:39;22.80;99.90
5274;DHT22;56254;50.956;7.010;2022-08-05T06:48:04;23.00;99.90
5274;DHT22;56254;50.956;7.010;2022-08-05T06:50:30;22.90;99.90
5274;DHT22;56254;50.956;7.010;2022-08-05T06:52:56;22.90;99.90
5274;DHT22;56254;50.956;7.010;2022-08-05T06:55:22;23.00;99.90
5274;DHT22;56254;50.956;7.010;2022-08-05T06:57:47;23.00;99.90
5274;DHT22;56254;50.956;7.010;2022-08-05T07:00:13;23.10;99.90
5274;DHT22;56254;50.956;7.010;2022-08-05T07:02:46;22.90;99.90
5274;DHT22;56254;50.956;7.010;2022-08-05T07:05:14;22.70;99.90
5274;DHT22;56254;50.956;7.010;2022-08-05T07:07:40;22.70;99.90
5274;DHT22;56254;50.956;7.010;2022-08-05T07:10:09;22.90;99.90
5274;DHT22;56254;50.956;7.010;2022-08-05T07:12:35;22.90;99.90
5274;DHT22;56254;50.956;7.010;2022-08-05T07:15:19;23.10;99.90
5274;DHT22;56254;50.956;7.010;2022-08-05T07:18:04;23.20;99.90
5274;DHT22;56254;50.956;7.010;2022-08-05T07:20:30;23.20;99.90
5274;DHT22;56254;50.956;7.010;2022-08-05T07:22:57;23.30;99.90
5274;DHT22;56254;50.956;7.010;2022-08-05T07:25:23;23.20;99.90
5274;DHT22;56254;50.956;7.010;2022-08-05T07:27:50;22.90;99.90
5274;DHT22;56254;50.956;7.010;2022-08-05T07:30:16;22.80;99.90
5274;DHT22;56254;50.956;7.010;2022-08-05T07:32:42;22.70;99.90
5274;DHT22;56254;50.956;7.010;2022-08-05T07:35:09;22.80;99.90
5274;DHT22;56254;50.956;7.010;2022-08-05T07:37:36;22.80;99.90
5274;DHT22;56254;50.956;7.010;2022-08-05T07:40:06;22.80;99.90
5274;DHT22;56254;50.956;7.010;2022-08-05T07:42:32;22.90;99.90
5274;DHT22;56254;50.956;7.010;2022-08-05T07:44:58;22.90;99.90
5274;DHT22;56254;50.956;7.010;2022-08-05T07:47:26;22.90;99.90
5274;DHT22;56254;50.956;7.010;2022-08-05T07:49:52;22.80;99.90
5274;DHT22;56254;50.956;7.010;2022-08-05T07:52:19;22.70;99.90
5274;DHT22;56254;50.956;7.010;2022-08-05T07:54:46;22.80;99.90
5274;DHT22;56254;50.956;7.010;2022-08-05T07:57:12;22.70;99.90
5274;DHT22;56254;50.956;7.010;2022-08-05T07:59:37;22.80;99.90
5274;DHT22;56254;50.956;7.010;2022-08-05T08:02:03;22.70;99.90
5274;DHT22;56254;50.956;7.010;2022-08-05T08:04:29;22.60;99.90
5274;DHT22;56254;50.956;7.010;2022-08-05T08:06:55;22.60;99.90
5274;DHT22;56254;50.956;7.010;2022-08-05T08:09:21;22.60;99.90
5274;DHT22;56254;50.956;7.010;2022-08-05T08:11:49;22.60;99.90
5274;DHT22;56254;50.956;7.010;2022-08-05T08:14:14;22.40;99.90
5274;DHT22;56254;50.956;7.010;2022-08-05T08:16:40;22.40;99.90
5274;DHT22;56254;50.956;7.010;2022-08-05T08:19:06;22.30;99.90
5274;DHT22;56254;50.956;7.010;2022-08-05T08:21:33;22.40;99.90
5274;DHT22;56254;50.956;7.010;2022-08-05T08:23:59;22.30;99.90
5274;DHT22;56254;50.956;7.010;2022-08-05T08:26:25;22.50;99.90
5274;DHT22;56254;50.956;7.010;2022-08-05T08:28:51;22.40;99.90
5274;DHT22;56254;50.956;7.010;2022-08-05T08:31:17;22.40;99.90
5274;DHT22;56254;50.956;7.010;2022-08-05T08:33:43;22.20;99.90
5274;DHT22;56254;50.956;7.010;2022-08-05T08:36:09;22.00;99.90
5274;DHT22;56254;50.956;7.010;2022-08-05T08:38:35;21.90;99.90
5274;DHT22;56254;50.956;7.010;2022-08-05T08:41:04;21.90;99.90
5274;DHT22;56254;50.956;7.010;2022-08-05T08:43:33;22.00;99.90
5274;DHT22;56254;50.956;7.010;2022-08-05T08:46:00;22.00;99.90
5274;DHT22;56254;50.956;7.010;2022-08-05T08:48:29;22.00;99.90
5274;DHT22;56254;50.956;7.010;2022-08-05T08:50:56;22.10;99.90
5274;DHT22;56254;50.956;7.010;2022-08-05T08:53:26;21.80;99.90
5274;DHT22;56254;50.956;7.010;2022-08-05T08:55:53;21.70;99.90
5274;DHT22;56254;50.956;7.010;2022-08-05T08:58:19;21.80;99.90
5274;DHT22;56254;50.956;7.010;2022-08-05T09:00:45;21.50;99.90
5274;DHT22;56254;50.956;7.010;2022-08-05T09:03:14;21.60;99.90
5274;DHT22;56254;50.956;7.010;2022-08-05T09:05:39;21.70;99.90
5274;DHT22;56254;50.956;7.010;2022-08-05T09:08:05;21.70;99.90
5274;DHT22;56254;50.956;7.010;2022-08-05T09:10:32;21.60;99.90
5274;DHT22;56254;50.956;7.010;2022-08-05T09:12:59;21.50;99.90
5274;DHT22;56254;50.956;7.010;2022-08-05T09:15:25;21.40;99.90
5274;DHT22;56254;50.956;7.010;2022-08-05T09:18:08;21.40;99.90
5274;DHT22;56254;50.956;7.010;2022-08-05T09:20:36;21.40;99.90
5274;DHT22;56254;50.956;7.010;2022-08-05T09:25:42;21.30;99.90
5274;DHT22;56254;50.956;7.010;2022-08-05T09:28:19;21.70;99.90
5274;DHT22;56254;50.956;7.010;2022-08-05T09:31:01;21.60;99.90
5274;DHT22;56254;50.956;7.010;2022-08-05T09:33:30;21.90;99.90
5274;DHT22;56254;50.956;7.010;2022-08-05T09:35:57;21.80;99.90
5274;DHT22;56254;50.956;7.010;2022-08-05T09:38:23;21.80;99.90
5274;DHT22;56254;50.956;7.010;2022-08-05T09:40:49;22.10;99.90
5274;DHT22;56254;50.956;7.010;2022-08-05T09:43:29;22.30;99.90
5274;DHT22;56254;50.956;7.010;2022-08-05T09:45:55;21.90;99.90
5274;DHT22;56254;50.956;7.010;2022-08-05T09:48:23;21.80;99.90
5274;DHT22;56254;50.956;7.010;2022-08-05T09:51:10;21.60;99.90
5274;DHT22;56254;50.956;7.010;2022-08-05T09:53:47;21.70;99.90
5274;DHT22;56254;50.956;7.010;2022-08-05T09:56:23;22.00;99.90
5274;DHT22;56254;50.956;7.010;2022-08-05T09:59:10;22.00;99.90
5274;DHT22;56254;50.956;7.010;2022-08-05T10:01:42;22.10;99.90
5274;DHT22;56254;50.956;7.010;2022-08-05T10:04:09;22.20;99.90
5274;DHT22;56254;50.956;7.010;2022-08-05T10:06:56;22.30;99.90
5274;DHT22;56254;50.956;7.010;2022-08-05T10:09:22;22.40;99.90
5274;DHT22;56254;50.956;7.010;2022-08-05T10:11:49;22.40;99.90
5274;DHT22;56254;50.956;7.010;2022-08-05T10:14:29;22.60;99.90
5274;DHT22;56254;50.956;7.010;2022-08-05T10:17:10;22.50;99.90
5274;DHT22;56254;50.956;7.010;2022-08-05T10:19:37;22.60;99.90
5274;DHT22;56254;50.956;7.010;2022-08-05T10:22:03;22.60;99.90
5274;DHT22;56254;50.956;7.010;2022-08-05T10:24:31;22.60;99.90
5274;DHT22;56254;50.956;7.010;2022-08-05T10:26:57;22.60;99.90
5274;DHT22;56254;50.956;7.010;2022-08-05T10:29:25;22.60;99.90
5274;DHT22;56254;50.956;7.010;2022-08-05T10:31:52;22.70;99.90
5274;DHT22;56254;50.956;7.010;2022-08-05T10:34:18;22.70;99.90
5274;DHT22;56254;50.956;7.010;2022-08-05T10:36:44;22.80;99.90
5274;DHT22;56254;50.956;7.010;2022-08-05T10:39:16;22.90;99.80
5274;DHT22;56254;50.956;7.010;2022-08-05T10:41:50;23.10;99.90
5274;DHT22;56254;50.956;7.010;2022-08-05T10:44:19;23.20;97.60
5274;DHT22;56254;50.956;7.010;2022-08-05T10:46:47;23.40;98.60
5274;DHT22;56254;50.956;7.010;2022-08-05T10:49:14;23.70;95.20
5274;DHT22;56254;50.956;7.010;2022-08-05T10:51:42;23.50;97.40
5274;DHT22;56254;50.956;7.010;2022-08-05T10:54:08;23.70;95.30
5274;DHT22;56254;50.956;7.010;2022-08-05T10:56:53;23.70;94.40
5274;DHT22;56254;50.956;7.010;2022-08-05T10:59:30;23.60;95.80
5274;DHT22;56254;50.956;7.010;2022-08-05T11:02:10;23.70;91.30
5274;DHT22;56254;50.956;7.010;2022-08-05T11:04:47;23.80;90.00
5274;DHT22;56254;50.956;7.010;2022-08-05T11:07:19;23.70;90.10
5274;DHT22;56254;50.956;7.010;2022-08-05T11:09:49;23.90;89.50
5274;DHT22;56254;50.956;7.010;2022-08-05T11:15:27;24.60;85.70
5274;DHT22;56254;50.956;7.010;2022-08-05T11:20:53;24.70;84.50
5274;DHT22;56254;50.956;7.010;2022-08-05T11:23:35;24.80;84.60
5274;DHT22;56254;50.956;7.010;2022-08-05T11:28:51;25.00;81.00
5274;DHT22;56254;50.956;7.010;2022-08-05T11:31:21;24.60;81.10
5274;DHT22;56254;50.956;7.010;2022-08-05T11:36:16;24.90;82.00
5274;DHT22;56254;50.956;7.010;2022-08-05T11:41:28;25.00;82.10
5274;DHT22;56254;50.956;7.010;2022-08-05T11:46:36;25.50;78.70
5274;DHT22;56254;50.956;7.010;2022-08-05T11:49:04;25.50;79.30
5274;DHT22;56254;50.956;7.010;2022-08-05T11:51:30;24.90;80.90
5274;DHT22;56254;50.956;7.010;2022-08-05T11:53:56;24.70;81.60
5274;DHT22;56254;50.956;7.010;2022-08-05T11:56:22;25.10;82.10
5274;DHT22;56254;50.956;7.010;2022-08-05T11:58:49;25.40;80.00
5274;DHT22;56254;50.956;7.010;2022-08-05T12:01:17;25.50;79.10
5274;DHT22;56254;50.956;7.010;2022-08-05T12:03:48;25.40;78.60
5274;DHT22;56254;50.956;7.010;2022-08-05T12:06:17;25.20;76.40
5274;DHT22;56254;50.956;7.010;2022-08-05T12:08:46;25.10;77.90
5274;DHT22;56254;50.956;7.010;2022-08-05T12:13:53;25.60;76.50
5274;DHT22;56254;50.956;7.010;2022-08-05T12:16:19;26.00;76.10
5274;DHT22;56254;50.956;7.010;2022-08-05T12:18:45;26.10;76.40
5274;DHT22;56254;50.956;7.010;2022-08-05T12:21:18;26.10;73.70
5274;DHT22;56254;50.956;7.010;2022-08-05T12:23:57;25.90;74.00
5274;DHT22;56254;50.956;7.010;2022-08-05T12:26:29;25.40;74.00
5274;DHT22;56254;50.956;7.010;2022-08-05T12:28:54;25.90;74.20
5274;DHT22;56254;50.956;7.010;2022-08-05T12:31:20;25.90;73.00
5274;DHT22;56254;50.956;7.010;2022-08-05T12:33:46;25.70;72.90
5274;DHT22;56254;50.956;7.010;2022-08-05T12:36:13;26.00;72.90
5274;DHT22;56254;50.956;7.010;2022-08-05T12:38:40;26.20;73.00
5274;DHT22;56254;50.956;7.010;2022-08-05T12:41:07;26.30;72.00
5274;DHT22;56254;50.956;7.010;2022-08-05T12:43:34;26.40;70.50
5274;DHT22;56254;50.956;7.010;2022-08-05T12:46:00;26.60;68.80
5274;DHT22;56254;50.956;7.010;2022-08-05T12:48:25;26.30;69.60
5274;DHT22;56254;50.956;7.010;2022-08-05T12:51:13;26.50;68.90
5274;DHT22;56254;50.956;7.010;2022-08-05T12:53:45;26.40;68.80
5274;DHT22;56254;50.956;7.010;2022-08-05T12:56:23;26.50;69.20
5274;DHT22;56254;50.956;7.010;2022-08-05T12:59:18;26.80;67.20
5274;DHT22;56254;50.956;7.010;2022-08-05T13:02:03;26.80;66.70
5274;DHT22;56254;50.956;7.010;2022-08-05T13:04:31;27.00;67.00
5274;DHT22;56254;50.956;7.010;2022-08-05T13:06:59;26.80;67.70
5274;DHT22;56254;50.956;7.010;2022-08-05T13:09:26;26.70;66.50
5274;DHT22;56254;50.956;7.010;2022-08-05T13:12:04;26.80;66.20
5274;DHT22;56254;50.956;7.010;2022-08-05T13:14:57;26.90;66.90
5274;DHT22;56254;50.956;7.010;2022-08-05T13:17:26;27.30;66.20
5274;DHT22;56254;50.956;7.010;2022-08-05T13:20:09;27.60;64.90
5274;DHT22;56254;50.956;7.010;2022-08-05T13:22:40;27.60;64.40
5274;DHT22;56254;50.956;7.010;2022-08-05T13:25:12;27.50;64.60
5274;DHT22;56254;50.956;7.010;2022-08-05T13:27:41;27.40;65.00
5274;DHT22;56254;50.956;7.010;2022-08-05T13:30:11;27.10;65.50
5274;DHT22;56254;50.956;7.010;2022-08-05T13:32:38;27.20;65.70
5274;DHT22;56254;50.956;7.010;2022-08-05T13:35:05;27.50;65.40
5274;DHT22;56254;50.956;7.010;2022-08-05T13:37:32;27.50;65.70
5274;DHT22;56254;50.956;7.010;2022-08-05T13:39:58;27.40;63.70
5274;DHT22;56254;50.956;7.010;2022-08-05T13:42:24;27.30;65.20
5274;DHT22;56254;50.956;7.010;2022-08-05T13:44:54;27.10;64.10
5274;DHT22;56254;50.956;7.010;2022-08-05T13:47:21;27.00;65.10
5274;DHT22;56254;50.956;7.010;2022-08-05T13:49:47;27.00;63.40
5274;DHT22;56254;50.956;7.010;2022-08-05T13:52:24;26.80;65.20
5274;DHT22;56254;50.956;7.010;2022-08-05T13:54:51;27.00;64.90
5274;DHT22;56254;50.956;7.010;2022-08-05T13:57:16;27.30;64.30
5274;DHT22;56254;50.956;7.010;2022-08-05T13:59:42;27.50;63.30
5274;DHT22;56254;50.956;7.010;2022-08-05T14:02:10;27.80;62.50
5274;DHT22;56254;50.956;7.010;2022-08-05T14:04:40;27.70;61.80
5274;DHT22;56254;50.956;7.010;2022-08-05T14:07:30;27.60;61.80
5274;DHT22;56254;50.956;7.010;2022-08-05T14:09:56;27.10;62.20
5274;DHT22;56254;50.956;7.010;2022-08-05T14:12:21;27.50;62.60
5274;DHT22;56254;50.956;7.010;2022-08-05T14:14:47;27.50;61.50
5274;DHT22;56254;50.956;7.010;2022-08-05T14:17:13;27.20;61.40
5274;DHT22;56254;50.956;7.010;2022-08-05T14:19:40;27.00;61.30
5274;DHT22;56254;50.956;7.010;2022-08-05T14:22:06;26.70;61.70
5274;DHT22;56254;50.956;7.010;2022-08-05T14:24:32;26.70;61.20
5274;DHT22;56254;50.956;7.010;2022-08-05T14:26:57;26.40;61.80
5274;DHT22;56254;50.956;7.010;2022-08-05T14:29:23;26.50;63.20
5274;DHT22;56254;50.956;7.010;2022-08-05T14:31:49;26.30;64.90
5274;DHT22;56254;50.956;7.010;2022-08-05T14:34:16;25.90;66.50
5274;DHT22;56254;50.956;7.010;2022-08-05T14:36:42;25.40;68.60
5274;DHT22;56254;50.956;7.010;2022-08-05T14:39:08;25.10;70.20
5274;DHT22;56254;50.956;7.010;2022-08-05T14:41:34;24.90;69.80
5274;DHT22;56254;50.956;7.010;2022-08-05T14:43:59;25.00;69.50
5274;DHT22;56254;50.956;7.010;2022-08-05T14:46:27;25.20;68.50
5274;DHT22;56254;50.956;7.010;2022-08-05T14:48:53;25.50;69.00
5274;DHT22;56254;50.956;7.010;2022-08-05T14:51:19;25.40;67.20
5274;DHT22;56254;50.956;7.010;2022-08-05T14:53:45;25.40;65.70
5274;DHT22;56254;50.956;7.010;2022-08-05T14:56:11;25.90;65.50
5274;DHT22;56254;50.956;7.010;2022-08-05T14:58:37;26.70;60.60
5274;DHT22;56254;50.956;7.010;2022-08-05T15:01:03;27.10;58.60
5274;DHT22;56254;50.956;7.010;2022-08-05T15:03:30;27.20;59.70
5274;DHT22;56254;50.956;7.010;2022-08-05T15:05:56;27.10;60.50
5274;DHT22;56254;50.956;7.010;2022-08-05T15:08:22;27.10;59.70
5274;DHT22;56254;50.956;7.010;2022-08-05T15:10:48;26.80;60.70
5274;DHT22;56254;50.956;7.010;2022-08-05T15:13:13;26.50;58.90
5274;DHT22;56254;50.956;7.010;2022-08-05T15:15:39;26.40;59.40
5274;DHT22;56254;50.956;7.010;2022-08-05T15:18:05;26.00;60.60
5274;DHT22;56254;50.956;7.010;2022-08-05T15:20:31;26.10;61.60
5274;DHT22;56254;50.956;7.010;2022-08-05T15:23:05;26.50;58.50
5274;DHT22;56254;50.956;7.010;2022-08-05T15:25:31;26.50;59.40
5274;DHT22;56254;50.956;7.010;2022-08-05T15:27:57;26.60;59.20
5274;DHT22;56254;50.956;7.010;2022-08-05T15:30:23;26.70;58.70
5274;DHT22;56254;50.956;7.010;2022-08-05T15:32:49;26.90;59.00
5274;DHT22;56254;50.956;7.010;2022-08-05T15:35:15;27.20;58.20
5274;DHT22;56254;50.956;7.010;2022-08-05T15:37:41;26.80;59.10
5274;DHT22;56254;50.956;7.010;2022-08-05T15:40:07;26.40;59.00
5274;DHT22;56254;50.956;7.010;2022-08-05T15:42:33;26.50;59.40
5274;DHT22;56254;50.956;7.010;2022-08-05T15:44:59;26.60;59.80
5274;DHT22;56254;50.956;7.010;2022-08-05T15:47:26;26.40;59.90
5274;DHT22;56254;50.956;7.010;2022-08-05T15:49:51;26.30;61.50
5274;DHT22;56254;50.956;7.010;2022-08-05T15:52:18;26.10;61.70
5274;DHT22;56254;50.956;7.010;2022-08-05T15:54:44;26.10;62.90
5274;DHT22;56254;50.956;7.010;2022-08-05T15:57:09;26.10;60.90
5274;DHT22;56254;50.956;7.010;2022-08-05T15:59:35;26.00;59.90
5274;DHT22;56254;50.956;7.010;2022-08-05T16:02:01;26.00;60.30
5274;DHT22;56254;50.956;7.010;2022-08-05T16:04:26;26.10;61.30
5274;DHT22;56254;50.956;7.010;2022-08-05T16:06:53;26.20;60.20
5274;DHT22;56254;50.956;7.010;2022-08-05T16:09:20;26.30;61.70
5274;DHT22;56254;50.956;7.010;2022-08-05T16:11:46;26.40;59.60
5274;DHT22;56254;50.956;7.010;2022-08-05T16:14:12;26.40;59.30
5274;DHT22;56254;50.956;7.010;2022-08-05T16:16:37;26.60;59.00
5274;DHT22;56254;50.956;7.010;2022-08-05T16:19:04;26.60;58.60
5274;DHT22;56254;50.956;7.010;2022-08-05T16:21:30;26.60;59.30
5274;DHT22;56254;50.956;7.010;2022-08-05T16:23:57;26.50;58.80
5274;DHT22;56254;50.956;7.010;2022-08-05T16:26:23;26.30;61.60
5274;DHT22;56254;50.956;7.010;2022-08-05T16:28:49;26.30;61.10
5274;DHT22;56254;50.956;7.010;2022-08-05T16:31:15;26.10;62.00
5274;DHT22;56254;50.956;7.010;2022-08-05T16:33:41;26.10;61.70
5274;DHT22;56254;50.956;7.010;2022-08-05T16:36:07;26.00;60.80
5274;DHT22;56254;50.956;7.010;2022-08-05T16:38:33;26.00;59.90
5274;DHT22;56254;50.956;7.010;2022-08-05T16:41:00;25.80;59.50
5274;DHT22;56254;50.956;7.010;2022-08-05T16:43:33;25.70;59.50
5274;DHT22;56254;50.956;7.010;2022-08-05T16:46:01;25.60;59.10
5274;DHT22;56254;50.956;7.010;2022-08-05T16:48:27;25.80;59.00
5274;DHT22;56254;50.956;7.010;2022-08-05T16:50:53;26.00;58.20